createdAt,value
2022-09-06T00:00:51.311Z,2092.11
2022-09-06T00:01:51.273Z,2061.54
2022-09-06T00:02:51.322Z,2105.26
2022-09-06T00:03:51.307Z,2108.58
2022-09-06T00:04:51.334Z,2092.11
2022-09-06T00:05:51.257Z,2098.67
2022-09-06T00:06:51.950Z,2077.52
2022-09-06T00:07:51.245Z,2053.64
2022-09-06T00:08:51.258Z,2033.38
2022-09-06T00:09:51.178Z,2027.23
2022-09-06T00:10:51.186Z,2052.07
2022-09-06T00:11:51.173Z,2050.50
2022-09-06T00:12:52.452Z,2039.57
2022-09-06T00:13:51.132Z,2034.93
2022-09-06T00:14:51.115Z,2056.79
2022-09-06T00:15:51.204Z,2061.54
2022-09-06T00:16:51.083Z,2103.61
2022-09-06T00:17:51.101Z,2090.48
2022-09-06T00:18:51.065Z,2097.03
2022-09-06T00:19:51.050Z,2105.26
2022-09-06T00:20:51.067Z,2092.11
2022-09-06T00:21:51.015Z,2085.60
2022-09-06T00:22:51.000Z,2064.71
2022-09-06T00:23:50.983Z,2067.90
2022-09-06T00:24:51.047Z,2071.10
2022-09-06T00:25:50.979Z,2079.13
2022-09-06T00:26:50.958Z,2090.48
2022-09-06T00:27:50.934Z,2133.76
2022-09-06T00:28:50.949Z,2093.75
2022-09-06T00:29:50.925Z,2103.61
2022-09-06T00:30:50.971Z,2100.31
2022-09-06T00:31:50.892Z,2097.03
2022-09-06T00:32:50.891Z,2087.23
2022-09-06T00:33:50.869Z,2092.11
2022-09-06T00:34:50.868Z,2088.85
2022-09-06T00:35:50.841Z,2079.13
2022-09-06T00:36:50.819Z,2075.91
2022-09-06T00:37:50.822Z,2083.98
2022-09-06T00:38:50.806Z,2097.03
2022-09-06T00:39:50.837Z,2083.98
2022-09-06T00:40:50.799Z,2087.23
2022-09-06T00:41:50.746Z,2090.48
2022-09-06T00:42:50.759Z,2110.24
2022-09-06T00:43:50.734Z,2121.93
2022-09-06T00:44:50.715Z,2120.25
2022-09-06T00:45:50.742Z,2120.25
2022-09-06T00:46:50.764Z,2118.58
2022-09-06T00:47:51.878Z,2130.36
2022-09-06T00:48:50.674Z,2123.61
2022-09-06T00:49:50.669Z,2111.90
2022-09-06T00:50:50.674Z,2118.58
2022-09-06T00:51:50.633Z,2095.39
2022-09-06T00:52:50.659Z,2097.03
2022-09-06T00:53:50.617Z,2085.60
2022-09-06T00:54:50.593Z,2079.13
2022-09-06T00:55:50.573Z,2082.36
2022-09-06T00:56:50.562Z,2097.03
2022-09-06T00:57:50.560Z,2090.48
2022-09-06T00:58:50.528Z,2077.52
2022-09-06T00:59:50.516Z,2080.75
2022-09-06T01:00:50.494Z,2072.70
2022-09-06T01:01:50.626Z,2041.13
2022-09-06T01:02:50.550Z,2067.90
2022-09-06T01:03:50.474Z,2050.50
2022-09-06T01:04:50.453Z,2095.39
2022-09-06T01:05:54.282Z,2097.03
2022-09-06T01:06:50.447Z,2108.58
2022-09-06T01:07:50.410Z,2110.24
2022-09-06T01:08:50.404Z,2088.85
2022-09-06T01:09:50.384Z,2085.60
2022-09-06T01:10:50.375Z,2075.91
2022-09-06T01:11:50.369Z,2095.39
2022-09-06T01:12:50.356Z,2063.12
2022-09-06T01:13:50.327Z,2058.37
2022-09-06T01:14:50.333Z,2042.68
2022-09-06T01:15:50.673Z,2030.30
2022-09-06T01:16:50.327Z,2005.99
2022-09-06T01:17:50.266Z,1969.14
2022-09-06T01:18:50.260Z,1953.35
2022-09-06T01:19:50.275Z,1922.53
2022-09-06T01:20:50.239Z,1875.44
2022-09-06T01:21:50.295Z,1843.19
2022-09-06T01:22:50.226Z,1814.49
2022-09-06T01:23:50.189Z,1791.44
2022-09-06T01:24:50.203Z,1756.22
2022-09-06T01:25:50.181Z,1744.79
2022-09-06T01:26:50.171Z,1738.00
2022-09-06T01:27:50.159Z,1723.47
2022-09-06T01:28:50.129Z,1723.47
2022-09-06T01:29:50.168Z,1720.15
2022-09-06T01:30:50.154Z,1700.51
2022-09-06T01:31:50.082Z,1712.46
2022-09-06T01:32:50.079Z,1703.75
2022-09-06T01:33:50.072Z,1703.75
2022-09-06T01:34:50.034Z,1710.27
2022-09-06T01:35:50.032Z,1688.72
2022-09-06T01:37:09.004Z,1681.30
2022-09-06T01:37:49.998Z,1695.13
2022-09-06T01:38:50.006Z,1686.59
2022-09-06T01:39:50.070Z,1687.66
2022-09-06T01:40:49.983Z,1692.99
2022-09-06T01:41:49.980Z,1699.43
2022-09-06T01:42:51.942Z,1720.15
2022-09-06T01:43:49.908Z,1756.22
2022-09-06T01:44:49.933Z,1750.49
2022-09-06T01:45:49.924Z,1764.32
2022-09-06T01:46:49.878Z,1764.32
2022-09-06T01:47:49.890Z,1766.64
2022-09-06T01:48:49.871Z,1759.68
2022-09-06T01:49:49.849Z,1776.01
2022-09-06T01:50:49.823Z,1768.98
2022-09-06T01:51:49.827Z,1767.81
2022-09-06T01:52:49.812Z,1774.83
2022-09-06T01:53:49.797Z,1792.64
2022-09-06T01:54:49.790Z,1774.83
2022-09-06T01:55:49.746Z,1785.48
2022-09-06T01:56:49.767Z,1776.01
2022-09-06T01:57:49.737Z,1792.64
2022-09-06T01:58:49.788Z,1803.50
2022-09-06T01:59:49.694Z,1804.71
2022-09-06T02:00:49.690Z,1807.15
2022-09-06T02:01:49.735Z,1816.95
2022-09-06T02:02:49.775Z,1814.49
2022-09-06T02:03:49.688Z,1814.49
2022-09-06T02:04:49.663Z,1834.36
2022-09-06T02:05:49.654Z,1841.92
2022-09-06T02:06:49.610Z,1850.83
2022-09-06T02:07:49.587Z,1847.00
2022-09-06T02:08:49.583Z,1829.35
2022-09-06T02:09:49.562Z,1844.46
2022-09-06T02:10:49.585Z,1868.90
2022-09-06T02:11:49.581Z,1875.44
2022-09-06T02:12:49.521Z,1866.30
2022-09-06T02:13:49.511Z,1878.06
2022-09-06T02:14:49.494Z,1855.95
2022-09-06T02:15:49.503Z,1854.67
2022-09-06T02:16:49.999Z,1835.62
2022-09-06T02:17:49.482Z,1847.00
2022-09-06T02:18:49.484Z,1849.55
2022-09-06T02:19:49.448Z,1858.53
2022-09-06T02:20:49.450Z,1889.99
2022-09-06T02:21:49.409Z,1889.99
2022-09-06T02:22:52.021Z,1891.32
2022-09-06T02:23:49.391Z,1870.20
2022-09-06T02:24:49.403Z,1859.82
2022-09-06T02:25:49.371Z,1867.59
2022-09-06T02:26:49.360Z,1845.73
2022-09-06T02:27:49.368Z,1862.40
2022-09-06T02:28:49.318Z,1854.67
2022-09-06T02:29:49.572Z,1858.53
2022-09-06T02:30:49.347Z,1866.30
2022-09-06T02:31:49.317Z,1862.40
2022-09-06T02:32:49.262Z,1855.95
2022-09-06T02:33:49.237Z,1852.11
2022-09-06T02:34:49.251Z,1862.40
2022-09-06T02:35:49.234Z,1866.30
2022-09-06T02:36:49.215Z,1845.73
2022-09-06T02:37:49.240Z,1848.28
2022-09-06T02:38:49.197Z,1830.60
2022-09-06T02:39:49.231Z,1825.61
2022-09-06T02:40:49.176Z,1836.87
2022-09-06T02:41:49.148Z,1841.92
2022-09-06T02:42:49.151Z,1814.49
2022-09-06T02:43:49.118Z,1824.37
2022-09-06T02:44:49.117Z,1819.42
2022-09-06T02:45:49.141Z,1830.60
2022-09-06T02:46:49.082Z,1826.86
2022-09-06T02:47:49.080Z,1816.95
2022-09-06T02:48:49.085Z,1820.65
2022-09-06T02:49:49.039Z,1792.64
2022-09-06T02:50:49.034Z,1802.29
2022-09-06T02:51:49.016Z,1778.37
2022-09-06T02:52:49.022Z,1763.16
2022-09-06T02:53:49.030Z,1778.37
2022-09-06T02:54:48.987Z,1773.66
2022-09-06T02:55:48.954Z,1789.05
2022-09-06T02:56:52.254Z,1774.83
2022-09-06T02:57:52.120Z,1792.64
2022-09-06T02:58:48.933Z,1776.01
2022-09-06T02:59:48.903Z,1767.81
2022-09-06T03:00:48.959Z,1768.98
2022-09-06T03:01:48.875Z,1780.73
2022-09-06T03:02:48.935Z,1792.64
2022-09-06T03:03:48.902Z,1772.49
2022-09-06T03:04:48.826Z,1758.53
2022-09-06T03:05:48.804Z,1765.48
2022-09-06T03:06:48.812Z,1759.68
2022-09-06T03:07:48.782Z,1762.00
2022-09-06T03:08:48.788Z,1778.37
2022-09-06T03:09:48.764Z,1755.07
2022-09-06T03:10:48.798Z,1759.68
2022-09-06T03:11:48.767Z,1744.79
2022-09-06T03:12:48.719Z,1751.63
2022-09-06T03:13:48.714Z,1739.13
2022-09-06T03:14:53.013Z,1749.35
2022-09-06T03:15:48.698Z,1725.69
2022-09-06T03:16:48.738Z,1742.52
2022-09-06T03:17:48.672Z,1717.95
2022-09-06T03:18:48.625Z,1708.09
2022-09-06T03:19:48.631Z,1700.51
2022-09-06T03:20:48.642Z,1712.46
2022-09-06T03:21:48.642Z,1688.72
2022-09-06T03:22:48.593Z,1671.86
2022-09-06T03:23:48.613Z,1669.78
2022-09-06T03:24:48.592Z,1649.23
2022-09-06T03:25:48.563Z,1634.15
2022-09-06T03:26:48.540Z,1593.34
2022-09-06T03:27:48.603Z,1563.59
2022-09-06T03:28:48.533Z,1556.33
2022-09-06T03:29:48.527Z,1544.67
2022-09-06T03:30:48.513Z,1537.58
2022-09-06T03:31:48.721Z,1517.55
2022-09-06T03:32:48.432Z,1506.46
2022-09-06T03:33:48.472Z,1495.54
2022-09-06T03:34:48.425Z,1502.24
2022-09-06T03:35:48.433Z,1510.71
2022-09-06T03:36:48.412Z,1510.71
2022-09-06T03:37:48.410Z,1512.42
2022-09-06T03:38:48.398Z,1502.24
2022-09-06T03:39:48.431Z,1493.87
2022-09-06T03:40:48.335Z,1482.30
2022-09-06T03:41:48.348Z,1467.69
2022-09-06T03:42:51.727Z,1469.30
2022-09-06T03:43:48.325Z,1467.69
2022-09-06T03:44:48.292Z,1448.65
2022-09-06T03:45:48.330Z,1454.94
2022-09-06T03:46:48.256Z,1439.31
2022-09-06T03:47:48.254Z,1417.99
2022-09-06T03:48:48.248Z,1401.67
2022-09-06T03:49:48.267Z,1400.21
2022-09-06T03:50:48.199Z,1387.16
2022-09-06T03:51:48.210Z,1384.30
2022-09-06T03:52:48.191Z,1360.41
2022-09-06T03:53:48.230Z,1350.81
2022-09-06T03:54:48.138Z,1345.38
2022-09-06T03:55:48.166Z,1340.00
2022-09-06T03:56:48.175Z,1332.01
2022-09-06T03:57:48.145Z,1303.50
2022-09-06T03:58:48.105Z,1299.71
2022-09-06T03:59:48.103Z,1312.44
2022-09-06T04:00:48.153Z,1321.50
2022-09-06T04:01:48.077Z,1311.15
2022-09-06T04:02:48.141Z,1306.04
2022-09-06T04:03:48.050Z,1312.44
2022-09-06T04:04:48.011Z,1278.63
2022-09-06T04:05:48.093Z,1239.59
2022-09-06T04:06:47.972Z,1207.21
2022-09-06T04:07:47.982Z,1214.87
2022-09-06T04:08:47.956Z,1225.98
2022-09-06T04:09:47.952Z,1219.29
2022-09-06T04:10:47.946Z,1213.77
2022-09-06T04:11:47.918Z,1212.67
2022-09-06T04:12:47.928Z,1221.51
2022-09-06T04:13:47.896Z,1212.67
2022-09-06T04:14:47.914Z,1185.84
2022-09-06T04:15:47.883Z,1177.50
2022-09-06T04:16:48.090Z,1153.18
2022-09-06T04:17:51.761Z,1140.43
2022-09-06T04:18:47.829Z,1127.00
2022-09-06T04:19:47.829Z,1129.85
2022-09-06T04:20:47.806Z,1139.45
2022-09-06T04:21:47.837Z,1141.40
2022-09-06T04:22:47.781Z,1139.45
2022-09-06T04:23:47.748Z,1142.37
2022-09-06T04:24:47.752Z,1145.30
2022-09-06T04:25:47.730Z,1125.10
2022-09-06T04:26:47.726Z,1102.88
2022-09-06T04:27:47.749Z,1092.09
2022-09-06T04:28:47.693Z,1085.02
2022-09-06T04:29:47.709Z,1077.17
2022-09-06T04:30:47.678Z,1086.78
2022-09-06T04:31:47.742Z,1076.31
2022-09-06T04:32:47.682Z,1065.18
2022-09-06T04:33:47.648Z,1072.86
2022-09-06T04:34:47.669Z,1072.86
2022-09-06T04:35:47.618Z,1078.91
2022-09-06T04:36:48.468Z,1077.17
2022-09-06T04:37:47.589Z,1075.44
2022-09-06T04:38:47.559Z,1064.34
2022-09-06T04:39:47.633Z,1076.31
2022-09-06T04:40:47.545Z,1051.81
2022-09-06T04:41:47.526Z,1044.43
2022-09-06T04:42:47.506Z,1002.99
2022-09-06T04:43:47.550Z,999.25
2022-09-06T04:44:47.466Z,988.20
2022-09-06T04:45:47.512Z,1000.75
2022-09-06T04:46:47.451Z,1011.32
2022-09-06T04:47:47.472Z,1012.85
2022-09-06T04:48:47.422Z,1000.75
2022-09-06T04:49:47.458Z,993.33
2022-09-06T04:50:47.408Z,1002.24
2022-09-06T04:51:47.394Z,1002.99
2022-09-06T04:52:47.357Z,991.86
2022-09-06T04:53:47.410Z,997.77
2022-09-06T04:54:47.334Z,994.07
2022-09-06T04:55:47.329Z,1005.25
2022-09-06T04:56:47.336Z,1006.76
2022-09-06T04:57:51.681Z,1004.50
2022-09-06T04:58:47.293Z,991.86
2022-09-06T04:59:47.296Z,991.12
2022-09-06T05:00:47.318Z,968.91
2022-09-06T05:01:47.270Z,943.66
2022-09-06T05:02:47.219Z,936.41
2022-09-06T05:03:47.240Z,880.42
2022-09-06T05:04:47.206Z,833.33
2022-09-06T05:05:47.200Z,839.60
2022-09-06T05:06:47.188Z,804.80
2022-09-06T05:07:47.174Z,799.52
2022-09-06T05:08:47.168Z,832.82
2022-09-06T05:09:47.186Z,804.32
2022-09-06T05:10:47.140Z,789.16
2022-09-06T05:11:47.099Z,824.61
2022-09-06T05:12:47.091Z,844.36
2022-09-06T05:13:47.079Z,831.78
2022-09-06T05:14:47.071Z,808.69
2022-09-06T05:15:47.083Z,827.67
2022-09-06T05:16:47.107Z,854.05
2022-09-06T05:17:47.070Z,862.85
2022-09-06T05:18:47.034Z,867.88
2022-09-06T05:19:46.996Z,852.96
2022-09-06T05:20:46.994Z,858.42
2022-09-06T05:21:46.988Z,862.29
2022-09-06T05:22:47.015Z,864.52
2022-09-06T05:23:46.966Z,862.29
2022-09-06T05:24:46.940Z,878.69
2022-09-06T05:25:46.958Z,888.59
2022-09-06T05:26:46.962Z,915.93
2022-09-06T05:27:46.906Z,927.98
2022-09-06T05:28:46.925Z,919.70
2022-09-06T05:29:46.861Z,915.30
2022-09-06T05:30:46.839Z,910.33
2022-09-06T05:31:47.193Z,922.23
2022-09-06T05:32:51.712Z,925.41
2022-09-06T05:33:46.824Z,926.05
2022-09-06T05:34:46.842Z,922.86
2022-09-06T05:35:46.792Z,933.80
2022-09-06T05:36:46.785Z,941.67
2022-09-06T05:37:46.780Z,959.89
2022-09-06T05:38:46.743Z,963.34
2022-09-06T05:39:46.842Z,966.11
2022-09-06T05:40:46.713Z,966.11
2022-09-06T05:41:46.727Z,975.25
2022-09-06T05:42:46.690Z,971.01
2022-09-06T05:43:46.703Z,967.51
2022-09-06T05:44:46.657Z,961.95
2022-09-06T05:45:46.736Z,969.61
2022-09-06T05:46:46.635Z,969.61
2022-09-06T05:47:46.674Z,980.25
2022-09-06T05:48:46.635Z,970.31
2022-09-06T05:49:46.603Z,977.39
2022-09-06T05:50:46.603Z,973.84
2022-09-06T05:51:46.588Z,966.11
2022-09-06T05:52:46.555Z,944.99
2022-09-06T05:53:46.573Z,920.96
2022-09-06T05:54:46.574Z,926.05
2022-09-06T05:55:46.518Z,953.06
2022-09-06T05:56:46.516Z,983.12
2022-09-06T05:57:46.526Z,999.25
2022-09-06T05:58:46.471Z,991.12
2022-09-06T05:59:46.463Z,991.12
2022-09-06T06:00:46.500Z,988.93
2022-09-06T06:01:46.621Z,1011.32
2022-09-06T06:02:46.494Z,1012.85
2022-09-06T06:03:46.414Z,1033.95
2022-09-06T06:04:46.419Z,1032.36
2022-09-06T06:05:46.383Z,1038.76
2022-09-06T06:06:46.631Z,1047.69
2022-09-06T06:07:46.362Z,1042.80
2022-09-06T06:08:46.393Z,1031.56
2022-09-06T06:09:46.350Z,1045.24
2022-09-06T06:10:46.339Z,1066.03
2022-09-06T06:11:46.349Z,1082.39
2022-09-06T06:12:52.254Z,1087.66
2022-09-06T06:13:46.315Z,1091.20
2022-09-06T06:14:46.267Z,1088.55
2022-09-06T06:15:46.262Z,1095.67
2022-09-06T06:16:46.298Z,1095.67
2022-09-06T06:17:46.257Z,1090.32
2022-09-06T06:18:50.085Z,1093.88
2022-09-06T06:19:46.210Z,1080.65
2022-09-06T06:20:46.188Z,1116.67
2022-09-06T06:21:46.177Z,1125.10
2022-09-06T06:22:46.195Z,1110.19
2022-09-06T06:23:46.146Z,1100.16
2022-09-06T06:24:46.135Z,1127.95
2022-09-06T06:25:46.157Z,1143.34
2022-09-06T06:26:46.120Z,1151.20
2022-09-06T06:27:46.095Z,1154.18
2022-09-06T06:28:46.134Z,1118.53
2022-09-06T06:29:46.090Z,1107.44
2022-09-06T06:30:46.071Z,1126.05
2022-09-06T06:31:46.118Z,1123.22
2022-09-06T06:32:46.051Z,1116.67
2022-09-06T06:33:46.033Z,1139.45
2022-09-06T06:34:46.014Z,1149.23
2022-09-06T06:35:45.995Z,1175.44
2022-09-06T06:36:45.966Z,1187.94
2022-09-06T06:37:45.963Z,1214.87
2022-09-06T06:38:45.960Z,1232.75
2022-09-06T06:39:46.029Z,1239.59
2022-09-06T06:40:45.913Z,1246.51
2022-09-06T06:41:45.932Z,1246.51
2022-09-06T06:42:45.977Z,1261.77
2022-09-06T06:43:45.875Z,1247.67
2022-09-06T06:44:45.879Z,1268.94
2022-09-06T06:45:45.937Z,1293.44
2022-09-06T06:46:46.099Z,1317.60
2022-09-06T06:48:00.397Z,1300.97
2022-09-06T06:48:45.820Z,1288.46
2022-09-06T06:49:45.820Z,1285.99
2022-09-06T06:50:45.793Z,1289.70
2022-09-06T06:51:45.792Z,1308.59
2022-09-06T06:52:45.761Z,1322.80
2022-09-06T06:53:45.754Z,1318.90
2022-09-06T06:54:45.721Z,1316.31
2022-09-06T06:55:45.764Z,1285.99
2022-09-06T06:56:45.744Z,1308.59
2022-09-06T06:57:45.699Z,1304.77
2022-09-06T06:58:45.716Z,1337.32
2022-09-06T06:59:45.666Z,1341.34
2022-09-06T07:00:45.725Z,1382.87
2022-09-06T07:01:45.737Z,1378.60
2022-09-06T07:02:45.642Z,1378.60
2022-09-06T07:03:45.628Z,1385.73
2022-09-06T07:04:45.586Z,1398.75
2022-09-06T07:07:45.587Z,1417.99
2022-09-06T07:08:45.603Z,1413.50
2022-09-06T07:10:45.528Z,1417.99
2022-09-06T07:11:45.596Z,1413.50
2022-09-06T07:12:45.535Z,1448.65
2022-09-06T07:13:45.528Z,1433.16
2022-09-06T07:14:45.879Z,1436.23
2022-09-06T07:15:45.575Z,1424.02
2022-09-06T07:16:45.590Z,1397.29
2022-09-06T07:17:45.445Z,1384.30
2022-09-06T07:18:45.499Z,1404.61
2022-09-06T07:21:45.629Z,1439.31
2022-09-06T07:22:45.358Z,1453.36
2022-09-06T07:24:45.385Z,1469.30
2022-09-06T07:25:45.299Z,1483.94
2022-09-06T07:27:49.301Z,1505.62
2022-09-06T07:28:45.291Z,1474.15
2022-09-06T07:29:45.255Z,1440.86
2022-09-06T07:30:45.282Z,1440.86
2022-09-06T07:32:45.215Z,1428.57
2022-09-06T07:33:45.196Z,1436.23
2022-09-06T07:34:45.213Z,1421.00
2022-09-06T07:35:45.165Z,1414.99
2022-09-06T07:36:45.175Z,1413.50
2022-09-06T07:37:45.230Z,1459.69
2022-09-06T07:38:45.136Z,1472.53
2022-09-06T07:39:45.180Z,1485.59
2022-09-06T07:40:45.129Z,1425.53
2022-09-06T07:41:45.104Z,1397.29
2022-09-06T07:42:45.283Z,1410.53
2022-09-06T07:43:45.065Z,1401.67
2022-09-06T07:44:45.081Z,1391.48
2022-09-06T07:45:45.072Z,1375.77
2022-09-06T07:46:45.210Z,1406.09
2022-09-06T07:48:00.342Z,1394.38
2022-09-06T07:48:45.025Z,1431.62
2022-09-06T07:50:49.164Z,1487.24
2022-09-06T07:51:45.009Z,1500.56
2022-09-06T07:53:44.984Z,1529.68
2022-09-06T07:54:44.950Z,1547.34
2022-09-06T07:55:44.924Z,1581.12
2022-09-06T07:56:44.905Z,1596.19
2022-09-06T07:57:44.915Z,1630.17
2022-09-06T07:58:44.891Z,1617.38
2022-09-06T07:59:44.871Z,1639.14
2022-09-06T08:00:44.862Z,1665.63
2022-09-06T08:01:44.865Z,1651.26
2022-09-06T08:02:44.830Z,1642.16
2022-09-06T08:03:44.860Z,1625.23
2022-09-06T08:04:47.617Z,1610.58
2022-09-06T08:07:44.766Z,1566.33
2022-09-06T08:09:00.325Z,1555.43
2022-09-06T08:09:44.731Z,1589.56
2022-09-06T08:10:44.723Z,1632.16
2022-09-06T08:11:44.703Z,1625.23
2022-09-06T08:12:44.741Z,1626.21
2022-09-06T08:13:44.660Z,1631.16
2022-09-06T08:14:44.652Z,1618.36
2022-09-06T08:15:44.654Z,1611.55
2022-09-06T08:16:44.845Z,1612.52
2022-09-06T08:17:44.602Z,1616.41
2022-09-06T08:18:44.729Z,1678.15
2022-09-06T08:19:44.602Z,1654.32
2022-09-06T08:20:44.573Z,1666.67
2022-09-06T08:21:44.597Z,1672.91
2022-09-06T08:22:44.554Z,1591.45
2022-09-06T08:23:44.565Z,1605.75
2022-09-06T08:24:44.533Z,1659.44
2022-09-06T08:25:44.521Z,1699.43
2022-09-06T08:26:44.519Z,1673.95
2022-09-06T08:27:44.474Z,1680.25
2022-09-06T08:28:44.501Z,1632.16
2022-09-06T08:29:44.439Z,1672.91
2022-09-06T08:30:44.442Z,1741.39
2022-09-06T08:31:44.486Z,1741.39
2022-09-06T08:32:44.457Z,1755.07
2022-09-06T08:33:44.429Z,1783.10
2022-09-06T08:34:44.386Z,1786.67
2022-09-06T08:35:44.382Z,1774.83
2022-09-06T08:36:44.349Z,1771.31
2022-09-06T08:37:44.349Z,1781.92
2022-09-06T08:38:44.340Z,1767.81
2022-09-06T08:39:44.378Z,1797.45
2022-09-06T08:40:44.306Z,1843.19
2022-09-06T08:41:44.311Z,1829.35
2022-09-06T08:42:44.302Z,1849.55
2022-09-06T08:43:44.618Z,1833.10
2022-09-06T08:44:59.750Z,1841.92
2022-09-06T08:45:44.316Z,1845.73
2022-09-06T08:46:44.297Z,1834.36
2022-09-06T08:47:44.254Z,1801.07
2022-09-06T08:48:44.210Z,1766.64
2022-09-06T08:49:44.179Z,1780.73
2022-09-06T08:50:44.189Z,1778.37
2022-09-06T08:51:44.160Z,1802.29
2022-09-06T08:52:54.484Z,1804.71
2022-09-06T08:53:44.147Z,1829.35
2022-09-06T08:54:44.133Z,1883.34
2022-09-06T08:55:44.118Z,1935.02
2022-09-06T08:56:44.117Z,2008.99
2022-09-06T08:57:44.105Z,2061.54
2022-09-06T08:58:44.200Z,2090.48
2022-09-06T08:59:44.183Z,2121.93
2022-09-06T09:00:44.143Z,2103.61
2022-09-06T09:01:44.125Z,2170.04
2022-09-06T09:02:44.065Z,2175.32
2022-09-06T09:03:44.046Z,2164.78
2022-09-06T09:04:44.372Z,2171.80
2022-09-06T09:05:44.100Z,2115.23
2022-09-06T09:06:43.982Z,2111.90
2022-09-06T09:07:43.954Z,2140.57
2022-09-06T09:08:43.943Z,2110.24
2022-09-06T09:09:43.930Z,2147.44
2022-09-06T09:10:43.913Z,2123.61
2022-09-06T09:11:43.934Z,2106.92
2022-09-06T09:12:43.894Z,2147.44
2022-09-06T09:13:43.882Z,2095.39
2022-09-06T09:14:43.867Z,2080.75
2022-09-06T09:15:43.850Z,2027.23
2022-09-06T09:16:43.911Z,2050.50
2022-09-06T09:17:43.844Z,2002.99
2022-09-06T09:18:43.810Z,1983.71
2022-09-06T09:19:43.775Z,1966.25
2022-09-06T09:20:43.834Z,1921.15
2022-09-06T09:21:43.774Z,1867.59
2022-09-06T09:22:43.802Z,1797.45
2022-09-06T09:23:43.725Z,1766.64
2022-09-06T09:24:43.745Z,1779.55
2022-09-06T09:25:43.701Z,1757.38
2022-09-06T09:26:43.736Z,1715.75
2022-09-06T09:27:43.674Z,1743.66
2022-09-06T09:28:43.721Z,1799.86
2022-09-06T09:30:49.534Z,1858.53
2022-09-06T09:31:43.732Z,1868.90
2022-09-06T09:32:43.646Z,1926.67
2022-09-06T09:33:43.620Z,1979.32
2022-09-06T09:34:43.622Z,1988.13
2022-09-06T09:35:43.634Z,2021.12
2022-09-06T09:37:48.695Z,2085.60
2022-09-06T09:38:43.562Z,2105.26
2022-09-06T09:39:43.562Z,2128.67
2022-09-06T09:40:43.528Z,2140.57
2022-09-06T09:41:43.510Z,2138.87
2022-09-06T09:42:43.515Z,2144.00
2022-09-06T09:43:43.473Z,2116.90
2022-09-06T09:44:43.539Z,2116.90
2022-09-06T09:45:43.491Z,2126.98
2022-09-06T09:46:43.497Z,2138.87
2022-09-06T09:47:43.505Z,2140.57
2022-09-06T09:48:43.485Z,2154.34
2022-09-06T09:49:43.391Z,2130.36
2022-09-06T09:50:43.371Z,2157.81
2022-09-06T09:51:43.370Z,2135.46
2022-09-06T09:52:43.410Z,2118.58
2022-09-06T09:53:43.363Z,2175.32
2022-09-06T09:54:43.360Z,2171.80
2022-09-06T09:55:43.320Z,2157.81
2022-09-06T09:56:43.314Z,2128.67
2022-09-06T09:57:43.301Z,2098.67
2022-09-06T09:58:43.288Z,2067.90
2022-09-06T09:59:43.259Z,2059.95
2022-09-06T10:00:43.417Z,2087.23
2022-09-06T10:01:43.237Z,2050.50
2022-09-06T10:02:43.222Z,2067.90
2022-09-06T10:04:43.722Z,2090.48
2022-09-06T10:05:45.905Z,2095.39
2022-09-06T10:07:43.145Z,2145.72
2022-09-06T10:08:43.149Z,2144.00
2022-09-06T10:09:43.161Z,2173.56
2022-09-06T10:10:43.122Z,2182.41
2022-09-06T10:11:43.106Z,2194.92
2022-09-06T10:12:43.117Z,2177.09
2022-09-06T10:13:43.073Z,2211.22
2022-09-06T10:14:43.093Z,2193.13
2022-09-06T10:15:43.130Z,2194.92
2022-09-06T10:16:43.047Z,2156.07
2022-09-06T10:17:43.022Z,2233.33
2022-09-06T10:18:43.039Z,2233.33
2022-09-06T10:19:43.023Z,2296.49
2022-09-06T10:20:43.015Z,2320.35
2022-09-06T10:21:42.973Z,2328.41
2022-09-06T10:22:42.985Z,2324.37
2022-09-06T10:24:42.954Z,2286.69
2022-09-06T10:25:44.986Z,2324.37
2022-09-06T10:26:42.945Z,2318.34
2022-09-06T10:27:55.664Z,2302.41
2022-09-06T10:28:42.902Z,2318.34
2022-09-06T10:29:42.854Z,2302.41
2022-09-06T10:30:42.883Z,2332.46
2022-09-06T10:31:42.882Z,2302.41
2022-09-06T10:32:42.901Z,2292.56
2022-09-06T10:33:42.826Z,2294.52
2022-09-06T10:34:42.810Z,2296.49
2022-09-06T10:35:42.807Z,2254.00
2022-09-06T10:36:42.779Z,2233.33
2022-09-06T10:37:42.762Z,2246.44
2022-09-06T10:38:42.765Z,2254.00
2022-09-06T10:39:42.805Z,2216.71
2022-09-06T10:40:42.728Z,2209.40
2022-09-06T10:41:42.707Z,2207.58
2022-09-06T10:42:42.702Z,2237.06
2022-09-06T10:43:42.706Z,2244.56
2022-09-06T10:44:42.672Z,2250.21
2022-09-06T10:45:42.675Z,2205.76
2022-09-06T10:46:42.666Z,2240.80
2022-09-06T10:47:42.638Z,2233.33
2022-09-06T10:48:42.649Z,2244.56
2022-09-06T10:49:42.585Z,2220.38
2022-09-06T10:50:42.595Z,2240.80
2022-09-06T10:51:42.590Z,2259.70
2022-09-06T10:52:42.565Z,2306.37
2022-09-06T10:53:42.533Z,2348.82
2022-09-06T10:54:42.538Z,2320.35
2022-09-06T10:55:46.221Z,2369.58
2022-09-06T10:56:42.510Z,2386.46
2022-09-06T10:59:42.490Z,2507.02
2022-09-06T11:00:42.461Z,2486.08
2022-09-06T11:01:42.537Z,2552.38
2022-09-06T11:02:42.680Z,2554.81
2022-09-06T11:04:00.362Z,2549.95
2022-09-06T11:05:42.427Z,2571.98
2022-09-06T11:06:42.364Z,2562.14
2022-09-06T11:07:42.760Z,2612.09
2022-09-06T11:09:42.334Z,2685.37
2022-09-06T11:10:42.375Z,2696.18
2022-09-06T11:11:42.355Z,2737.49
2022-09-06T11:12:42.290Z,2680.00
2022-09-06T11:13:42.286Z,2707.07
2022-09-06T11:14:42.289Z,2698.89
2022-09-06T11:15:42.282Z,2669.32
2022-09-06T11:16:42.253Z,2690.76
2022-09-06T11:17:42.247Z,2715.30
2022-09-06T11:18:42.229Z,2785.86
2022-09-06T11:19:42.226Z,2845.01
2022-09-06T11:20:42.185Z,2948.29
2022-09-06T11:21:42.179Z,2994.41
2022-09-06T11:22:42.156Z,3059.36
2022-09-06T11:23:42.146Z,3014.62
2022-09-06T11:24:42.181Z,3012.93
2022-09-06T11:25:42.129Z,2951.54
2022-09-06T11:26:42.119Z,2977.78
2022-09-06T11:27:42.112Z,3031.67
2022-09-06T11:28:42.096Z,2977.78
2022-09-06T11:29:42.089Z,3004.48
2022-09-06T11:30:42.129Z,2941.82
2022-09-06T11:32:42.032Z,2869.38
2022-09-06T11:33:42.023Z,2791.67
2022-09-06T11:34:42.007Z,2791.67
2022-09-06T11:35:42.010Z,2815.12
2022-09-06T11:36:41.998Z,2774.33
2022-09-06T11:37:42.017Z,2794.58
2022-09-06T11:38:41.949Z,2696.18
2022-09-06T11:40:41.981Z,2637.79
2022-09-06T11:41:41.931Z,2599.42
2022-09-06T11:42:41.952Z,2594.39
2022-09-06T11:43:41.935Z,2547.53
2022-09-06T11:44:41.936Z,2554.81
2022-09-06T11:45:41.884Z,2586.87
2022-09-06T11:46:41.885Z,2591.88
2022-09-06T11:47:41.848Z,2591.88
2022-09-06T11:48:41.828Z,2612.09
2022-09-06T11:49:41.853Z,2596.90
2022-09-06T11:50:41.807Z,2594.39
2022-09-06T11:51:41.808Z,2562.14
2022-09-06T11:52:41.772Z,2554.81
2022-09-06T11:53:41.788Z,2584.38
2022-09-06T11:54:41.734Z,2591.88
2022-09-06T11:55:41.746Z,2574.45
2022-09-06T11:56:41.726Z,2540.28
2022-09-06T11:57:41.903Z,2542.69
2022-09-06T11:58:41.691Z,2557.25
2022-09-06T11:59:41.684Z,2569.51
2022-09-06T12:00:41.694Z,2509.36
2022-09-06T12:01:41.645Z,2530.69
2022-09-06T12:02:41.754Z,2521.17
2022-09-06T12:04:41.612Z,2564.59
2022-09-06T12:05:41.633Z,2586.87
2022-09-06T12:06:41.580Z,2599.42
2022-09-06T12:07:41.591Z,2601.94
2022-09-06T12:08:41.599Z,2645.61
2022-09-06T12:09:41.559Z,2671.98
2022-09-06T12:10:41.586Z,2664.02
2022-09-06T12:11:41.509Z,2658.73
2022-09-06T12:12:41.506Z,2707.07
2022-09-06T12:13:41.505Z,2757.20
2022-09-06T12:14:41.485Z,2762.89
2022-09-06T12:15:41.542Z,2734.69
2022-09-06T12:16:41.455Z,2760.04
2022-09-06T12:17:41.473Z,2734.69
2022-09-06T12:18:41.433Z,2718.05
2022-09-06T12:19:44.292Z,2658.73
2022-09-06T12:20:41.419Z,2614.63
2022-09-06T12:21:41.413Z,2653.47
2022-09-06T12:22:41.418Z,2658.73
2022-09-06T12:23:41.539Z,2643.00
2022-09-06T12:24:41.636Z,2632.61
2022-09-06T12:25:41.343Z,2648.22
2022-09-06T12:26:41.341Z,2599.42
2022-09-06T12:27:41.338Z,2557.25
2022-09-06T12:28:41.309Z,2567.05
2022-09-06T12:29:41.396Z,2586.87
2022-09-06T12:30:41.259Z,2622.31
2022-09-06T12:31:41.366Z,2601.94